sensor_id;sensor_type;location;lat;lon;timestamp;P1;durP1;ratioP1;P2;durP2;ratioP2
870;SDS011;422;51.280;7.236;2022-09-30T00:01:27;19.90;;;14.10;;
870;SDS011;422;51.280;7.236;2022-09-30T00:04:00;12.90;;;11.07;;
870;SDS011;422;51.280;7.236;2022-09-30T00:06:28;14.07;;;10.87;;
870;SDS011;422;51.280;7.236;2022-09-30T00:08:59;14.10;;;10.83;;
870;SDS011;422;51.280;7.236;2022-09-30T00:11:29;11.07;;;9.97;;
870;SDS011;422;51.280;7.236;2022-09-30T00:13:58;11.00;;;9.80;;
870;SDS011;422;51.280;7.236;2022-09-30T00:16:27;10.70;;;8.80;;
870;SDS011;422;51.280;7.236;2022-09-30T00:18:56;10.83;;;8.90;;
870;SDS011;422;51.280;7.236;2022-09-30T00:21:24;11.80;;;8.33;;
870;SDS011;422;51.280;7.236;2022-09-30T00:23:52;10.07;;;7.83;;
870;SDS011;422;51.280;7.236;2022-09-30T00:26:21;10.90;;;8.20;;
870;SDS011;422;51.280;7.236;2022-09-30T00:28:54;8.60;;;7.73;;
870;SDS011;422;51.280;7.236;2022-09-30T00:31:24;9.90;;;8.87;;
870;SDS011;422;51.280;7.236;2022-09-30T00:33:52;12.77;;;7.13;;
870;SDS011;422;51.280;7.236;2022-09-30T00:36:32;8.33;;;7.60;;
870;SDS011;422;51.280;7.236;2022-09-30T00:39:00;16.77;;;8.90;;
870;SDS011;422;51.280;7.236;2022-09-30T00:41:32;8.50;;;7.63;;
870;SDS011;422;51.280;7.236;2022-09-30T00:47:17;11.80;;;7.90;;
870;SDS011;422;51.280;7.236;2022-09-30T00:50:05;9.37;;;8.27;;
870;SDS011;422;51.280;7.236;2022-09-30T00:52:43;10.73;;;8.43;;
870;SDS011;422;51.280;7.236;2022-09-30T00:55:19;9.80;;;8.23;;
870;SDS011;422;51.280;7.236;2022-09-30T00:58:06;9.50;;;8.40;;
870;SDS011;422;51.280;7.236;2022-09-30T01:00:40;12.27;;;8.27;;
870;SDS011;422;51.280;7.236;2022-09-30T01:03:08;9.60;;;8.00;;
870;SDS011;422;51.280;7.236;2022-09-30T01:05:36;9.50;;;7.43;;
870;SDS011;422;51.280;7.236;2022-09-30T01:08:06;8.63;;;7.70;;
870;SDS011;422;51.280;7.236;2022-09-30T01:10:34;9.13;;;7.87;;
870;SDS011;422;51.280;7.236;2022-09-30T01:13:04;10.80;;;8.90;;
870;SDS011;422;51.280;7.236;2022-09-30T01:15:38;9.50;;;8.50;;
870;SDS011;422;51.280;7.236;2022-09-30T01:18:19;9.27;;;8.37;;
870;SDS011;422;51.280;7.236;2022-09-30T01:30:14;11.80;;;7.53;;
870;SDS011;422;51.280;7.236;2022-09-30T01:32:52;11.20;;;8.77;;
870;SDS011;422;51.280;7.236;2022-09-30T01:35:33;8.67;;;7.80;;
870;SDS011;422;51.280;7.236;2022-09-30T01:38:12;9.10;;;8.20;;
870;SDS011;422;51.280;7.236;2022-09-30T01:40:45;8.20;;;6.97;;
870;SDS011;422;51.280;7.236;2022-09-30T01:43:21;8.80;;;7.90;;
870;SDS011;422;51.280;7.236;2022-09-30T01:45:55;9.80;;;8.03;;
870;SDS011;422;51.280;7.236;2022-09-30T01:48:30;8.33;;;7.40;;
870;SDS011;422;51.280;7.236;2022-09-30T01:51:04;10.43;;;7.67;;
870;SDS011;422;51.280;7.236;2022-09-30T01:53:36;9.10;;;7.40;;
870;SDS011;422;51.280;7.236;2022-09-30T01:56:10;8.47;;;7.67;;
870;SDS011;422;51.280;7.236;2022-09-30T01:58:45;8.60;;;7.70;;
870;SDS011;422;51.280;7.236;2022-09-30T02:01:23;10.60;;;7.80;;
870;SDS011;422;51.280;7.236;2022-09-30T02:03:57;9.97;;;8.97;;
870;SDS011;422;51.280;7.236;2022-09-30T02:06:31;9.00;;;7.90;;
870;SDS011;422;51.280;7.236;2022-09-30T02:09:06;9.73;;;8.57;;
870;SDS011;422;51.280;7.236;2022-09-30T02:11:37;9.77;;;7.77;;
870;SDS011;422;51.280;7.236;2022-09-30T02:14:07;8.43;;;7.60;;
870;SDS011;422;51.280;7.236;2022-09-30T02:16:44;7.87;;;6.73;;
870;SDS011;422;51.280;7.236;2022-09-30T02:19:17;9.07;;;7.57;;
870;SDS011;422;51.280;7.236;2022-09-30T02:21:50;12.27;;;8.20;;
870;SDS011;422;51.280;7.236;2022-09-30T02:24:24;9.00;;;7.77;;
870;SDS011;422;51.280;7.236;2022-09-30T02:26:56;8.33;;;7.53;;
870;SDS011;422;51.280;7.236;2022-09-30T02:29:27;10.07;;;8.10;;
870;SDS011;422;51.280;7.236;2022-09-30T02:32:02;8.77;;;7.87;;
870;SDS011;422;51.280;7.236;2022-09-30T02:34:36;8.00;;;6.87;;
870;SDS011;422;51.280;7.236;2022-09-30T02:37:06;10.10;;;9.07;;
870;SDS011;422;51.280;7.236;2022-09-30T02:39:39;9.97;;;8.07;;
870;SDS011;422;51.280;7.236;2022-09-30T02:42:10;10.17;;;8.60;;
870;SDS011;422;51.280;7.236;2022-09-30T02:44:40;9.90;;;8.90;;
870;SDS011;422;51.280;7.236;2022-09-30T02:47:10;12.03;;;9.50;;
870;SDS011;422;51.280;7.236;2022-09-30T02:49:45;9.13;;;8.23;;
870;SDS011;422;51.280;7.236;2022-09-30T02:52:19;10.07;;;7.60;;
870;SDS011;422;51.280;7.236;2022-09-30T02:54:54;9.57;;;8.60;;
870;SDS011;422;51.280;7.236;2022-09-30T02:57:36;10.80;;;8.83;;
870;SDS011;422;51.280;7.236;2022-09-30T03:00:10;12.00;;;9.27;;
870;SDS011;422;51.280;7.236;2022-09-30T03:02:38;11.70;;;8.07;;
870;SDS011;422;51.280;7.236;2022-09-30T03:05:07;9.10;;;8.10;;
870;SDS011;422;51.280;7.236;2022-09-30T03:07:34;10.80;;;8.63;;
870;SDS011;422;51.280;7.236;2022-09-30T03:10:05;9.33;;;7.70;;
870;SDS011;422;51.280;7.236;2022-09-30T03:12:40;9.23;;;8.27;;
870;SDS011;422;51.280;7.236;2022-09-30T03:15:23;9.00;;;8.10;;
870;SDS011;422;51.280;7.236;2022-09-30T03:18:08;9.43;;;8.53;;
870;SDS011;422;51.280;7.236;2022-09-30T03:20:52;10.43;;;8.17;;
870;SDS011;422;51.280;7.236;2022-09-30T03:26:57;10.17;;;9.13;;
870;SDS011;422;51.280;7.236;2022-09-30T03:29:34;11.37;;;9.40;;
870;SDS011;422;51.280;7.236;2022-09-30T03:32:12;10.57;;;8.90;;
870;SDS011;422;51.280;7.236;2022-09-30T03:34:56;10.63;;;8.80;;
870;SDS011;422;51.280;7.236;2022-09-30T03:37:31;9.73;;;7.50;;
870;SDS011;422;51.280;7.236;2022-09-30T03:40:12;9.63;;;7.63;;
870;SDS011;422;51.280;7.236;2022-09-30T03:42:46;9.00;;;7.70;;
870;SDS011;422;51.280;7.236;2022-09-30T03:45:22;8.67;;;7.17;;
870;SDS011;422;51.280;7.236;2022-09-30T03:47:57;10.67;;;7.77;;
870;SDS011;422;51.280;7.236;2022-09-30T03:50:28;10.20;;;7.80;;
870;SDS011;422;51.280;7.236;2022-09-30T03:52:58;10.77;;;7.60;;
870;SDS011;422;51.280;7.236;2022-09-30T03:55:26;9.40;;;7.97;;
870;SDS011;422;51.280;7.236;2022-09-30T03:57:55;9.10;;;7.87;;
870;SDS011;422;51.280;7.236;2022-09-30T04:00:23;10.00;;;8.17;;
870;SDS011;422;51.280;7.236;2022-09-30T04:02:50;7.80;;;6.93;;
870;SDS011;422;51.280;7.236;2022-09-30T04:05:20;9.70;;;7.40;;
870;SDS011;422;51.280;7.236;2022-09-30T04:07:49;10.47;;;7.73;;
870;SDS011;422;51.280;7.236;2022-09-30T04:10:21;8.87;;;8.07;;
870;SDS011;422;51.280;7.236;2022-09-30T04:12:48;10.10;;;8.67;;
870;SDS011;422;51.280;7.236;2022-09-30T04:15:19;9.63;;;8.00;;
870;SDS011;422;51.280;7.236;2022-09-30T04:17:46;12.23;;;8.60;;
870;SDS011;422;51.280;7.236;2022-09-30T04:20:13;9.00;;;8.10;;
870;SDS011;422;51.280;7.236;2022-09-30T04:22:40;9.47;;;8.40;;
870;SDS011;422;51.280;7.236;2022-09-30T04:25:07;9.60;;;8.50;;
870;SDS011;422;51.280;7.236;2022-09-30T04:27:36;10.07;;;9.07;;
870;SDS011;422;51.280;7.236;2022-09-30T04:30:04;9.07;;;8.17;;
870;SDS011;422;51.280;7.236;2022-09-30T04:32:33;10.60;;;9.40;;
870;SDS011;422;51.280;7.236;2022-09-30T04:35:06;9.03;;;8.13;;
870;SDS011;422;51.280;7.236;2022-09-30T04:37:33;10.17;;;7.43;;
870;SDS011;422;51.280;7.236;2022-09-30T04:40:00;8.97;;;7.90;;
870;SDS011;422;51.280;7.236;2022-09-30T04:42:27;10.50;;;9.40;;
870;SDS011;422;51.280;7.236;2022-09-30T04:44:56;9.93;;;8.93;;
870;SDS011;422;51.280;7.236;2022-09-30T04:47:24;9.90;;;8.40;;
870;SDS011;422;51.280;7.236;2022-09-30T04:49:51;10.53;;;8.50;;
870;SDS011;422;51.280;7.236;2022-09-30T04:52:18;10.77;;;8.80;;
870;SDS011;422;51.280;7.236;2022-09-30T04:54:45;12.20;;;9.20;;
870;SDS011;422;51.280;7.236;2022-09-30T04:57:12;9.07;;;8.17;;
870;SDS011;422;51.280;7.236;2022-09-30T04:59:42;8.87;;;7.80;;
870;SDS011;422;51.280;7.236;2022-09-30T05:02:16;9.07;;;7.63;;
870;SDS011;422;51.280;7.236;2022-09-30T05:04:44;9.87;;;8.60;;
870;SDS011;422;51.280;7.236;2022-09-30T05:07:11;9.00;;;8.03;;
870;SDS011;422;51.280;7.236;2022-09-30T05:09:38;9.17;;;8.03;;
870;SDS011;422;51.280;7.236;2022-09-30T05:12:05;10.50;;;8.27;;
870;SDS011;422;51.280;7.236;2022-09-30T05:14:32;9.87;;;8.63;;
870;SDS011;422;51.280;7.236;2022-09-30T05:16:59;8.73;;;7.83;;
870;SDS011;422;51.280;7.236;2022-09-30T05:19:28;8.83;;;7.93;;
870;SDS011;422;51.280;7.236;2022-09-30T05:21:55;22.13;;;18.70;;
870;SDS011;422;51.280;7.236;2022-09-30T05:24:23;20.30;;;16.83;;
870;SDS011;422;51.280;7.236;2022-09-30T05:26:50;13.80;;;11.50;;
870;SDS011;422;51.280;7.236;2022-09-30T05:29:17;16.57;;;13.50;;
870;SDS011;422;51.280;7.236;2022-09-30T05:31:47;15.13;;;13.53;;
870;SDS011;422;51.280;7.236;2022-09-30T05:34:22;15.80;;;13.13;;
870;SDS011;422;51.280;7.236;2022-09-30T05:36:53;16.87;;;13.30;;
870;SDS011;422;51.280;7.236;2022-09-30T05:39:21;12.00;;;10.27;;
870;SDS011;422;51.280;7.236;2022-09-30T05:41:48;10.97;;;8.73;;
870;SDS011;422;51.280;7.236;2022-09-30T05:44:18;9.90;;;8.90;;
870;SDS011;422;51.280;7.236;2022-09-30T05:46:45;12.57;;;9.60;;
870;SDS011;422;51.280;7.236;2022-09-30T05:49:14;12.17;;;8.60;;
870;SDS011;422;51.280;7.236;2022-09-30T05:51:41;11.23;;;8.90;;
870;SDS011;422;51.280;7.236;2022-09-30T05:54:10;10.40;;;9.40;;
870;SDS011;422;51.280;7.236;2022-09-30T05:56:38;10.70;;;9.70;;
870;SDS011;422;51.280;7.236;2022-09-30T05:59:05;12.07;;;10.77;;
870;SDS011;422;51.280;7.236;2022-09-30T06:01:32;11.80;;;9.93;;
870;SDS011;422;51.280;7.236;2022-09-30T06:04:00;10.97;;;9.20;;
870;SDS011;422;51.280;7.236;2022-09-30T06:06:27;10.30;;;8.77;;
870;SDS011;422;51.280;7.236;2022-09-30T06:08:55;10.07;;;9.03;;
870;SDS011;422;51.280;7.236;2022-09-30T06:11:26;10.73;;;8.73;;
870;SDS011;422;51.280;7.236;2022-09-30T06:13:55;12.30;;;9.97;;
870;SDS011;422;51.280;7.236;2022-09-30T06:16:26;11.03;;;9.80;;
870;SDS011;422;51.280;7.236;2022-09-30T06:18:53;10.70;;;9.03;;
870;SDS011;422;51.280;7.236;2022-09-30T06:21:20;11.30;;;9.37;;
870;SDS011;422;51.280;7.236;2022-09-30T06:23:47;14.00;;;10.53;;
870;SDS011;422;51.280;7.236;2022-09-30T06:26:14;11.57;;;7.47;;
870;SDS011;422;51.280;7.236;2022-09-30T06:28:46;10.53;;;9.43;;
870;SDS011;422;51.280;7.236;2022-09-30T06:31:14;12.20;;;10.20;;
870;SDS011;422;51.280;7.236;2022-09-30T06:33:44;10.63;;;9.30;;
870;SDS011;422;51.280;7.236;2022-09-30T06:36:11;13.90;;;9.90;;
870;SDS011;422;51.280;7.236;2022-09-30T06:38:39;11.10;;;9.57;;
870;SDS011;422;51.280;7.236;2022-09-30T06:41:06;10.00;;;9.00;;
870;SDS011;422;51.280;7.236;2022-09-30T06:43:35;11.10;;;9.97;;
870;SDS011;422;51.280;7.236;2022-09-30T06:46:03;12.27;;;11.03;;
870;SDS011;422;51.280;7.236;2022-09-30T06:48:33;11.83;;;10.63;;
870;SDS011;422;51.280;7.236;2022-09-30T06:51:00;12.00;;;10.10;;
870;SDS011;422;51.280;7.236;2022-09-30T06:53:28;12.80;;;9.70;;
870;SDS011;422;51.280;7.236;2022-09-30T06:55:58;12.70;;;10.10;;
870;SDS011;422;51.280;7.236;2022-09-30T06:58:26;10.63;;;9.57;;
870;SDS011;422;51.280;7.236;2022-09-30T07:00:56;30.30;;;12.27;;
870;SDS011;422;51.280;7.236;2022-09-30T07:03:25;17.70;;;11.17;;
870;SDS011;422;51.280;7.236;2022-09-30T07:05:57;13.23;;;10.90;;
870;SDS011;422;51.280;7.236;2022-09-30T07:08:30;15.47;;;10.50;;
870;SDS011;422;51.280;7.236;2022-09-30T07:10:59;16.33;;;11.90;;
870;SDS011;422;51.280;7.236;2022-09-30T07:13:28;14.90;;;11.83;;
870;SDS011;422;51.280;7.236;2022-09-30T07:16:01;16.13;;;11.50;;
870;SDS011;422;51.280;7.236;2022-09-30T07:18:33;12.63;;;10.20;;
870;SDS011;422;51.280;7.236;2022-09-30T07:21:01;11.20;;;9.77;;
870;SDS011;422;51.280;7.236;2022-09-30T07:23:28;13.17;;;9.33;;
870;SDS011;422;51.280;7.236;2022-09-30T07:25:56;13.27;;;10.50;;
870;SDS011;422;51.280;7.236;2022-09-30T07:28:28;16.53;;;10.27;;
870;SDS011;422;51.280;7.236;2022-09-30T07:31:01;12.40;;;10.27;;
870;SDS011;422;51.280;7.236;2022-09-30T07:33:34;13.80;;;9.70;;
870;SDS011;422;51.280;7.236;2022-09-30T07:36:03;8.93;;;7.03;;
870;SDS011;422;51.280;7.236;2022-09-30T07:38:35;10.00;;;8.47;;
870;SDS011;422;51.280;7.236;2022-09-30T07:41:05;9.50;;;7.10;;
870;SDS011;422;51.280;7.236;2022-09-30T07:43:34;8.47;;;7.67;;
870;SDS011;422;51.280;7.236;2022-09-30T07:46:04;8.13;;;7.33;;
870;SDS011;422;51.280;7.236;2022-09-30T07:48:32;7.30;;;6.70;;
870;SDS011;422;51.280;7.236;2022-09-30T07:51:07;8.83;;;7.93;;
870;SDS011;422;51.280;7.236;2022-09-30T07:53:35;8.63;;;7.83;;
870;SDS011;422;51.280;7.236;2022-09-30T07:56:03;7.93;;;7.13;;
870;SDS011;422;51.280;7.236;2022-09-30T07:58:31;8.13;;;7.37;;
870;SDS011;422;51.280;7.236;2022-09-30T08:00:58;8.07;;;7.27;;
870;SDS011;422;51.280;7.236;2022-09-30T08:03:26;8.97;;;8.07;;
870;SDS011;422;51.280;7.236;2022-09-30T08:05:54;7.80;;;7.00;;
870;SDS011;422;51.280;7.236;2022-09-30T08:08:21;10.13;;;7.80;;
870;SDS011;422;51.280;7.236;2022-09-30T08:10:50;9.13;;;8.23;;
870;SDS011;422;51.280;7.236;2022-09-30T08:13:17;7.70;;;7.00;;
870;SDS011;422;51.280;7.236;2022-09-30T08:15:45;9.27;;;8.30;;
870;SDS011;422;51.280;7.236;2022-09-30T08:18:12;10.23;;;9.30;;
870;SDS011;422;51.280;7.236;2022-09-30T08:20:42;9.70;;;8.70;;
870;SDS011;422;51.280;7.236;2022-09-30T08:23:14;10.60;;;9.50;;
870;SDS011;422;51.280;7.236;2022-09-30T08:25:41;10.07;;;9.07;;
870;SDS011;422;51.280;7.236;2022-09-30T08:28:08;10.20;;;9.20;;
870;SDS011;422;51.280;7.236;2022-09-30T08:30:35;10.23;;;8.63;;
870;SDS011;422;51.280;7.236;2022-09-30T08:33:03;10.30;;;9.40;;
870;SDS011;422;51.280;7.236;2022-09-30T08:35:31;9.30;;;8.37;;
870;SDS011;422;51.280;7.236;2022-09-30T08:38:01;8.70;;;7.90;;
870;SDS011;422;51.280;7.236;2022-09-30T08:40:30;12.83;;;9.07;;
870;SDS011;422;51.280;7.236;2022-09-30T08:43:03;12.03;;;8.90;;
870;SDS011;422;51.280;7.236;2022-09-30T08:45:38;9.50;;;8.30;;
870;SDS011;422;51.280;7.236;2022-09-30T08:48:24;9.50;;;8.50;;
870;SDS011;422;51.280;7.236;2022-09-30T08:51:05;8.80;;;8.00;;
870;SDS011;422;51.280;7.236;2022-09-30T08:53:44;8.43;;;7.50;;
870;SDS011;422;51.280;7.236;2022-09-30T08:56:17;8.93;;;8.00;;
870;SDS011;422;51.280;7.236;2022-09-30T08:58:50;8.83;;;7.60;;
870;SDS011;422;51.280;7.236;2022-09-30T09:01:26;8.23;;;7.43;;
870;SDS011;422;51.280;7.236;2022-09-30T09:03:57;7.80;;;7.10;;
870;SDS011;422;51.280;7.236;2022-09-30T09:06:27;9.33;;;8.27;;
870;SDS011;422;51.280;7.236;2022-09-30T09:09:04;8.30;;;7.20;;
870;SDS011;422;51.280;7.236;2022-09-30T09:11:50;7.83;;;7.07;;
870;SDS011;422;51.280;7.236;2022-09-30T09:14:36;8.80;;;7.90;;
870;SDS011;422;51.280;7.236;2022-09-30T09:17:13;8.10;;;6.20;;
870;SDS011;422;51.280;7.236;2022-09-30T09:19:53;8.67;;;6.20;;
870;SDS011;422;51.280;7.236;2022-09-30T09:22:28;8.90;;;6.50;;
870;SDS011;422;51.280;7.236;2022-09-30T09:25:00;9.63;;;7.83;;
870;SDS011;422;51.280;7.236;2022-09-30T09:27:36;8.80;;;6.90;;
870;SDS011;422;51.280;7.236;2022-09-30T09:30:11;9.00;;;7.37;;
870;SDS011;422;51.280;7.236;2022-09-30T09:32:41;7.87;;;7.07;;
870;SDS011;422;51.280;7.236;2022-09-30T09:35:15;8.67;;;7.40;;
870;SDS011;422;51.280;7.236;2022-09-30T09:37:54;8.00;;;6.83;;
870;SDS011;422;51.280;7.236;2022-09-30T09:40:47;7.90;;;6.80;;
870;SDS011;422;51.280;7.236;2022-09-30T09:43:25;6.47;;;5.87;;
870;SDS011;422;51.280;7.236;2022-09-30T09:46:08;10.70;;;6.50;;
870;SDS011;422;51.280;7.236;2022-09-30T09:48:44;7.33;;;5.73;;
870;SDS011;422;51.280;7.236;2022-09-30T09:51:12;7.93;;;6.40;;
870;SDS011;422;51.280;7.236;2022-09-30T09:53:52;7.10;;;6.40;;
870;SDS011;422;51.280;7.236;2022-09-30T09:56:27;6.80;;;6.20;;
870;SDS011;422;51.280;7.236;2022-09-30T09:59:09;7.53;;;6.83;;
870;SDS011;422;51.280;7.236;2022-09-30T10:01:44;7.03;;;6.43;;
870;SDS011;422;51.280;7.236;2022-09-30T10:04:15;8.10;;;6.63;;
870;SDS011;422;51.280;7.236;2022-09-30T10:06:49;7.40;;;6.50;;
870;SDS011;422;51.280;7.236;2022-09-30T10:09:31;7.47;;;6.63;;
870;SDS011;422;51.280;7.236;2022-09-30T10:15:12;6.70;;;6.10;;
870;SDS011;422;51.280;7.236;2022-09-30T10:17:49;7.40;;;6.70;;
870;SDS011;422;51.280;7.236;2022-09-30T10:20:28;9.87;;;7.67;;
870;SDS011;422;51.280;7.236;2022-09-30T10:23:01;9.87;;;6.87;;
870;SDS011;422;51.280;7.236;2022-09-30T10:25:33;7.27;;;6.57;;
870;SDS011;422;51.280;7.236;2022-09-30T10:28:01;7.30;;;6.30;;
870;SDS011;422;51.280;7.236;2022-09-30T10:30:50;9.10;;;6.97;;
870;SDS011;422;51.280;7.236;2022-09-30T10:33:23;7.97;;;7.27;;
870;SDS011;422;51.280;7.236;2022-09-30T10:35:55;8.93;;;7.03;;
870;SDS011;422;51.280;7.236;2022-09-30T10:38:29;6.70;;;6.10;;
870;SDS011;422;51.280;7.236;2022-09-30T10:40:59;6.73;;;6.00;;
870;SDS011;422;51.280;7.236;2022-09-30T10:43:31;7.73;;;6.20;;
870;SDS011;422;51.280;7.236;2022-09-30T10:46:04;6.97;;;6.37;;
870;SDS011;422;51.280;7.236;2022-09-30T10:48:34;6.30;;;5.80;;
870;SDS011;422;51.280;7.236;2022-09-30T10:51:03;7.37;;;6.60;;
870;SDS011;422;51.280;7.236;2022-09-30T10:53:43;7.80;;;7.00;;
870;SDS011;422;51.280;7.236;2022-09-30T10:56:10;6.97;;;6.37;;
870;SDS011;422;51.280;7.236;2022-09-30T10:58:43;6.53;;;5.90;;
870;SDS011;422;51.280;7.236;2022-09-30T11:01:16;6.60;;;5.80;;
870;SDS011;422;51.280;7.236;2022-09-30T11:03:53;6.30;;;5.80;;
870;SDS011;422;51.280;7.236;2022-09-30T11:06:27;6.37;;;5.77;;
870;SDS011;422;51.280;7.236;2022-09-30T11:09:00;7.50;;;6.20;;
870;SDS011;422;51.280;7.236;2022-09-30T11:11:32;7.10;;;5.93;;
870;SDS011;422;51.280;7.236;2022-09-30T11:14:11;6.77;;;6.10;;
870;SDS011;422;51.280;7.236;2022-09-30T11:16:48;6.60;;;6.00;;
870;SDS011;422;51.280;7.236;2022-09-30T11:19:25;6.87;;;6.27;;
870;SDS011;422;51.280;7.236;2022-09-30T11:21:57;6.07;;;5.47;;
870;SDS011;422;51.280;7.236;2022-09-30T11:24:33;6.03;;;5.47;;
870;SDS011;422;51.280;7.236;2022-09-30T11:27:08;6.83;;;5.70;;
870;SDS011;422;51.280;7.236;2022-09-30T11:29:44;6.00;;;5.40;;
870;SDS011;422;51.280;7.236;2022-09-30T11:32:31;7.37;;;5.87;;
870;SDS011;422;51.280;7.236;2022-09-30T11:35:15;9.57;;;4.90;;
870;SDS011;422;51.280;7.236;2022-09-30T11:37:57;5.10;;;4.50;;
870;SDS011;422;51.280;7.236;2022-09-30T11:40:36;7.10;;;5.83;;
870;SDS011;422;51.280;7.236;2022-09-30T11:43:13;5.50;;;5.00;;
870;SDS011;422;51.280;7.236;2022-09-30T11:46:05;5.57;;;4.93;;
870;SDS011;422;51.280;7.236;2022-09-30T11:49:00;5.17;;;4.67;;
870;SDS011;422;51.280;7.236;2022-09-30T11:51:40;6.03;;;5.00;;
870;SDS011;422;51.280;7.236;2022-09-30T11:54:18;5.70;;;5.10;;
870;SDS011;422;51.280;7.236;2022-09-30T11:56:55;5.10;;;4.20;;
870;SDS011;422;51.280;7.236;2022-09-30T11:59:35;7.60;;;4.40;;
870;SDS011;422;51.280;7.236;2022-09-30T12:02:11;6.47;;;4.40;;
870;SDS011;422;51.280;7.236;2022-09-30T12:04:54;4.40;;;4.00;;
870;SDS011;422;51.280;7.236;2022-09-30T12:07:29;4.97;;;4.10;;
870;SDS011;422;51.280;7.236;2022-09-30T12:10:12;4.20;;;3.80;;
870;SDS011;422;51.280;7.236;2022-09-30T12:12:46;5.03;;;4.07;;
870;SDS011;422;51.280;7.236;2022-09-30T12:15:17;5.20;;;4.00;;
870;SDS011;422;51.280;7.236;2022-09-30T12:17:49;5.13;;;4.63;;
870;SDS011;422;51.280;7.236;2022-09-30T12:20:23;5.33;;;4.80;;
870;SDS011;422;51.280;7.236;2022-09-30T12:22:54;5.93;;;4.50;;
870;SDS011;422;51.280;7.236;2022-09-30T12:25:27;4.60;;;4.20;;
870;SDS011;422;51.280;7.236;2022-09-30T12:28:01;4.20;;;3.80;;
870;SDS011;422;51.280;7.236;2022-09-30T12:30:51;4.80;;;4.40;;
870;SDS011;422;51.280;7.236;2022-09-30T12:33:28;4.20;;;3.90;;
870;SDS011;422;51.280;7.236;2022-09-30T12:36:20;4.00;;;3.40;;
870;SDS011;422;51.280;7.236;2022-09-30T12:39:22;5.10;;;4.60;;
870;SDS011;422;51.280;7.236;2022-09-30T12:48:08;4.90;;;4.13;;
870;SDS011;422;51.280;7.236;2022-09-30T12:50:40;3.87;;;3.57;;
870;SDS011;422;51.280;7.236;2022-09-30T12:53:14;4.60;;;4.20;;
870;SDS011;422;51.280;7.236;2022-09-30T12:55:46;4.43;;;3.60;;
870;SDS011;422;51.280;7.236;2022-09-30T12:58:18;6.27;;;3.90;;
870;SDS011;422;51.280;7.236;2022-09-30T13:01:00;5.10;;;4.70;;
870;SDS011;422;51.280;7.236;2022-09-30T13:06:15;4.63;;;4.20;;
870;SDS011;422;51.280;7.236;2022-09-30T13:08:48;5.10;;;4.67;;
870;SDS011;422;51.280;7.236;2022-09-30T13:11:43;4.27;;;3.87;;
870;SDS011;422;51.280;7.236;2022-09-30T13:14:17;6.17;;;5.03;;
870;SDS011;422;51.280;7.236;2022-09-30T13:19:51;5.93;;;4.47;;
870;SDS011;422;51.280;7.236;2022-09-30T13:25:53;4.47;;;4.07;;
870;SDS011;422;51.280;7.236;2022-09-30T13:28:27;6.33;;;4.50;;
870;SDS011;422;51.280;7.236;2022-09-30T13:34:03;5.20;;;4.70;;
870;SDS011;422;51.280;7.236;2022-09-30T13:36:38;5.53;;;5.03;;
870;SDS011;422;51.280;7.236;2022-09-30T13:39:15;5.27;;;4.77;;
870;SDS011;422;51.280;7.236;2022-09-30T13:41:49;6.20;;;4.40;;
870;SDS011;422;51.280;7.236;2022-09-30T13:44:37;4.93;;;4.43;;
870;SDS011;422;51.280;7.236;2022-09-30T13:47:18;6.70;;;4.63;;
870;SDS011;422;51.280;7.236;2022-09-30T13:49:51;5.00;;;4.47;;
870;SDS011;422;51.280;7.236;2022-09-30T13:52:23;7.83;;;4.83;;
870;SDS011;422;51.280;7.236;2022-09-30T13:54:54;5.13;;;4.70;;
870;SDS011;422;51.280;7.236;2022-09-30T13:57:26;6.27;;;5.23;;
870;SDS011;422;51.280;7.236;2022-09-30T14:00:03;5.77;;;4.60;;
870;SDS011;422;51.280;7.236;2022-09-30T14:02:40;5.33;;;4.83;;
870;SDS011;422;51.280;7.236;2022-09-30T14:11:38;4.53;;;4.13;;
870;SDS011;422;51.280;7.236;2022-09-30T14:14:24;5.37;;;4.87;;
870;SDS011;422;51.280;7.236;2022-09-30T14:17:30;4.90;;;4.33;;
870;SDS011;422;51.280;7.236;2022-09-30T14:20:14;4.80;;;4.40;;
870;SDS011;422;51.280;7.236;2022-09-30T14:22:54;6.97;;;4.13;;
870;SDS011;422;51.280;7.236;2022-09-30T14:25:24;6.90;;;5.53;;
870;SDS011;422;51.280;7.236;2022-09-30T14:28:07;5.37;;;4.50;;
870;SDS011;422;51.280;7.236;2022-09-30T14:30:40;3.50;;;3.20;;
870;SDS011;422;51.280;7.236;2022-09-30T14:33:30;3.97;;;3.50;;
870;SDS011;422;51.280;7.236;2022-09-30T14:36:09;4.03;;;3.63;;
870;SDS011;422;51.280;7.236;2022-09-30T14:38:42;4.93;;;4.10;;
870;SDS011;422;51.280;7.236;2022-09-30T14:41:13;4.53;;;3.50;;
870;SDS011;422;51.280;7.236;2022-09-30T14:43:48;4.73;;;3.80;;
870;SDS011;422;51.280;7.236;2022-09-30T14:46:24;5.47;;;5.00;;
870;SDS011;422;51.280;7.236;2022-09-30T14:48:56;4.17;;;3.27;;
870;SDS011;422;51.280;7.236;2022-09-30T14:51:30;3.70;;;3.40;;
870;SDS011;422;51.280;7.236;2022-09-30T14:54:02;3.93;;;3.53;;
870;SDS011;422;51.280;7.236;2022-09-30T14:56:31;5.10;;;3.80;;
870;SDS011;422;51.280;7.236;2022-09-30T14:59:10;7.00;;;3.90;;
870;SDS011;422;51.280;7.236;2022-09-30T15:01:47;3.80;;;3.50;;
870;SDS011;422;51.280;7.236;2022-09-30T15:04:20;4.73;;;4.17;;
870;SDS011;422;51.280;7.236;2022-09-30T15:06:50;4.40;;;3.60;;
870;SDS011;422;51.280;7.236;2022-09-30T15:09:22;4.00;;;3.30;;
870;SDS011;422;51.280;7.236;2022-09-30T15:11:55;3.77;;;3.00;;
870;SDS011;422;51.280;7.236;2022-09-30T15:14:23;3.83;;;3.17;;
870;SDS011;422;51.280;7.236;2022-09-30T15:16:55;3.80;;;3.40;;
870;SDS011;422;51.280;7.236;2022-09-30T15:19:23;4.90;;;4.50;;
870;SDS011;422;51.280;7.236;2022-09-30T15:21:55;4.10;;;3.33;;
870;SDS011;422;51.280;7.236;2022-09-30T15:24:27;4.83;;;3.20;;
870;SDS011;422;51.280;7.236;2022-09-30T15:26:56;6.60;;;4.80;;
870;SDS011;422;51.280;7.236;2022-09-30T15:29:25;6.53;;;4.70;;
870;SDS011;422;51.280;7.236;2022-09-30T15:31:57;4.93;;;3.40;;
870;SDS011;422;51.280;7.236;2022-09-30T15:34:26;4.13;;;2.93;;
870;SDS011;422;51.280;7.236;2022-09-30T15:36:59;3.50;;;2.43;;
870;SDS011;422;51.280;7.236;2022-09-30T15:39:31;3.13;;;2.90;;
870;SDS011;422;51.280;7.236;2022-09-30T15:42:26;4.10;;;2.90;;
870;SDS011;422;51.280;7.236;2022-09-30T15:44:59;3.43;;;2.97;;
870;SDS011;422;51.280;7.236;2022-09-30T15:47:31;6.20;;;3.10;;
870;SDS011;422;51.280;7.236;2022-09-30T15:53:03;3.90;;;2.90;;
870;SDS011;422;51.280;7.236;2022-09-30T15:55:40;3.43;;;2.60;;
870;SDS011;422;51.280;7.236;2022-09-30T16:01:12;3.83;;;2.90;;
870;SDS011;422;51.280;7.236;2022-09-30T16:03:48;4.03;;;3.73;;
870;SDS011;422;51.280;7.236;2022-09-30T16:06:21;3.63;;;3.33;;
870;SDS011;422;51.280;7.236;2022-09-30T16:08:56;2.93;;;2.63;;
870;SDS011;422;51.280;7.236;2022-09-30T16:11:28;4.93;;;3.50;;
870;SDS011;422;51.280;7.236;2022-09-30T16:13:59;4.50;;;3.40;;
870;SDS011;422;51.280;7.236;2022-09-30T16:16:28;5.87;;;4.00;;
870;SDS011;422;51.280;7.236;2022-09-30T16:19:01;3.27;;;2.90;;
870;SDS011;422;51.280;7.236;2022-09-30T16:21:35;2.97;;;2.63;;
870;SDS011;422;51.280;7.236;2022-09-30T16:27:23;3.50;;;2.90;;
870;SDS011;422;51.280;7.236;2022-09-30T16:29:55;4.47;;;3.53;;
870;SDS011;422;51.280;7.236;2022-09-30T16:32:31;5.40;;;3.40;;
870;SDS011;422;51.280;7.236;2022-09-30T16:35:04;6.57;;;3.63;;
870;SDS011;422;51.280;7.236;2022-09-30T16:37:34;4.77;;;3.33;;
870;SDS011;422;51.280;7.236;2022-09-30T16:40:08;4.53;;;3.50;;
870;SDS011;422;51.280;7.236;2022-09-30T16:42:43;5.13;;;3.50;;
870;SDS011;422;51.280;7.236;2022-09-30T16:45:15;4.77;;;4.37;;
870;SDS011;422;51.280;7.236;2022-09-30T16:47:42;6.30;;;5.70;;
870;SDS011;422;51.280;7.236;2022-09-30T16:50:22;8.10;;;7.30;;
870;SDS011;422;51.280;7.236;2022-09-30T16:52:54;4.90;;;4.23;;
870;SDS011;422;51.280;7.236;2022-09-30T16:55:23;5.90;;;3.57;;
870;SDS011;422;51.280;7.236;2022-09-30T16:57:54;3.50;;;2.90;;
870;SDS011;422;51.280;7.236;2022-09-30T17:00:22;6.07;;;4.33;;
870;SDS011;422;51.280;7.236;2022-09-30T17:02:50;3.47;;;3.17;;
870;SDS011;422;51.280;7.236;2022-09-30T17:05:19;3.50;;;3.00;;
870;SDS011;422;51.280;7.236;2022-09-30T17:07:53;4.77;;;3.27;;
870;SDS011;422;51.280;7.236;2022-09-30T17:10:24;3.43;;;3.13;;